sensor_id;sensor_type;location;lat;lon;timestamp;P1;durP1;ratioP1;P2;durP2;ratioP2
9821;SDS011;4950;46.042;14.472;2023-03-29T00:02:18;13.07;;;6.23;;
9821;SDS011;4950;46.042;14.472;2023-03-29T00:04:45;10.77;;;5.60;;
9821;SDS011;4950;46.042;14.472;2023-03-29T00:07:12;15.97;;;5.97;;
9821;SDS011;4950;46.042;14.472;2023-03-29T00:09:39;11.63;;;5.10;;
9821;SDS011;4950;46.042;14.472;2023-03-29T00:12:07;11.57;;;4.87;;
9821;SDS011;4950;46.042;14.472;2023-03-29T00:14:35;11.68;;;4.30;;
9821;SDS011;4950;46.042;14.472;2023-03-29T00:17:02;11.63;;;3.97;;
9821;SDS011;4950;46.042;14.472;2023-03-29T00:19:29;11.57;;;4.70;;
9821;SDS011;4950;46.042;14.472;2023-03-29T00:21:59;6.97;;;3.50;;
9821;SDS011;4950;46.042;14.472;2023-03-29T00:24:26;7.37;;;3.43;;
9821;SDS011;4950;46.042;14.472;2023-03-29T00:26:53;10.13;;;4.03;;
9821;SDS011;4950;46.042;14.472;2023-03-29T00:29:21;8.63;;;3.70;;
9821;SDS011;4950;46.042;14.472;2023-03-29T00:31:47;10.10;;;4.20;;
9821;SDS011;4950;46.042;14.472;2023-03-29T00:34:17;8.73;;;3.87;;
9821;SDS011;4950;46.042;14.472;2023-03-29T00:36:44;13.03;;;4.53;;
9821;SDS011;4950;46.042;14.472;2023-03-29T00:39:14;9.17;;;4.10;;
9821;SDS011;4950;46.042;14.472;2023-03-29T00:41:43;10.53;;;4.30;;
9821;SDS011;4950;46.042;14.472;2023-03-29T00:47:11;9.50;;;4.27;;
9821;SDS011;4950;46.042;14.472;2023-03-29T00:49:38;8.83;;;4.43;;
9821;SDS011;4950;46.042;14.472;2023-03-29T00:52:05;10.03;;;4.73;;
9821;SDS011;4950;46.042;14.472;2023-03-29T00:54:33;8.20;;;4.03;;
9821;SDS011;4950;46.042;14.472;2023-03-29T00:57:02;10.10;;;4.13;;
9821;SDS011;4950;46.042;14.472;2023-03-29T00:59:33;8.13;;;4.07;;
9821;SDS011;4950;46.042;14.472;2023-03-29T01:02:02;8.40;;;3.67;;
9821;SDS011;4950;46.042;14.472;2023-03-29T01:04:33;14.30;;;4.38;;
9821;SDS011;4950;46.042;14.472;2023-03-29T01:07:03;8.47;;;4.23;;
9821;SDS011;4950;46.042;14.472;2023-03-29T01:09:34;10.17;;;4.60;;
9821;SDS011;4950;46.042;14.472;2023-03-29T01:12:04;9.40;;;4.78;;
9821;SDS011;4950;46.042;14.472;2023-03-29T01:14:37;12.97;;;5.37;;
9821;SDS011;4950;46.042;14.472;2023-03-29T01:17:09;9.97;;;4.57;;
9821;SDS011;4950;46.042;14.472;2023-03-29T01:19:39;10.07;;;4.63;;
9821;SDS011;4950;46.042;14.472;2023-03-29T01:22:10;10.93;;;4.07;;
9821;SDS011;4950;46.042;14.472;2023-03-29T01:24:56;10.13;;;4.27;;
9821;SDS011;4950;46.042;14.472;2023-03-29T01:27:37;6.70;;;3.50;;
9821;SDS011;4950;46.042;14.472;2023-03-29T01:30:13;8.20;;;4.07;;
9821;SDS011;4950;46.042;14.472;2023-03-29T01:32:44;7.93;;;3.93;;
9821;SDS011;4950;46.042;14.472;2023-03-29T01:35:17;10.80;;;5.17;;
9821;SDS011;4950;46.042;14.472;2023-03-29T01:37:49;8.97;;;4.13;;
9821;SDS011;4950;46.042;14.472;2023-03-29T01:40:21;10.70;;;5.27;;
9821;SDS011;4950;46.042;14.472;2023-03-29T01:42:51;9.80;;;4.67;;
9821;SDS011;4950;46.042;14.472;2023-03-29T01:45:23;9.47;;;5.20;;
9821;SDS011;4950;46.042;14.472;2023-03-29T01:47:56;10.17;;;5.40;;
9821;SDS011;4950;46.042;14.472;2023-03-29T01:50:31;9.43;;;4.77;;
9821;SDS011;4950;46.042;14.472;2023-03-29T01:53:04;13.00;;;5.67;;
9821;SDS011;4950;46.042;14.472;2023-03-29T01:55:34;15.73;;;6.07;;
9821;SDS011;4950;46.042;14.472;2023-03-29T01:58:06;15.00;;;5.97;;
9821;SDS011;4950;46.042;14.472;2023-03-29T02:00:35;14.03;;;7.10;;
9821;SDS011;4950;46.042;14.472;2023-03-29T02:03:05;13.68;;;6.13;;
9821;SDS011;4950;46.042;14.472;2023-03-29T02:05:33;14.80;;;6.83;;
9821;SDS011;4950;46.042;14.472;2023-03-29T02:08:02;12.93;;;6.45;;
9821;SDS011;4950;46.042;14.472;2023-03-29T02:10:32;13.03;;;6.03;;
9821;SDS011;4950;46.042;14.472;2023-03-29T02:13:01;13.33;;;6.17;;
9821;SDS011;4950;46.042;14.472;2023-03-29T02:15:29;12.97;;;6.57;;
9821;SDS011;4950;46.042;14.472;2023-03-29T02:17:55;15.57;;;6.77;;
9821;SDS011;4950;46.042;14.472;2023-03-29T02:20:23;17.83;;;6.63;;
9821;SDS011;4950;46.042;14.472;2023-03-29T02:22:54;13.70;;;5.67;;
9821;SDS011;4950;46.042;14.472;2023-03-29T02:25:23;11.83;;;5.03;;
9821;SDS011;4950;46.042;14.472;2023-03-29T02:27:50;13.30;;;6.30;;
9821;SDS011;4950;46.042;14.472;2023-03-29T02:30:18;17.50;;;7.10;;
9821;SDS011;4950;46.042;14.472;2023-03-29T02:32:48;18.93;;;6.67;;
9821;SDS011;4950;46.042;14.472;2023-03-29T02:35:20;13.20;;;5.33;;
9821;SDS011;4950;46.042;14.472;2023-03-29T02:37:53;13.57;;;5.10;;
9821;SDS011;4950;46.042;14.472;2023-03-29T02:40:21;14.23;;;6.10;;
9821;SDS011;4950;46.042;14.472;2023-03-29T02:42:50;17.83;;;5.50;;
9821;SDS011;4950;46.042;14.472;2023-03-29T02:45:20;14.83;;;4.80;;
9821;SDS011;4950;46.042;14.472;2023-03-29T02:47:51;15.20;;;4.70;;
9821;SDS011;4950;46.042;14.472;2023-03-29T02:50:20;14.60;;;4.83;;
9821;SDS011;4950;46.042;14.472;2023-03-29T02:52:50;14.90;;;4.40;;
9821;SDS011;4950;46.042;14.472;2023-03-29T02:55:20;9.43;;;3.93;;
9821;SDS011;4950;46.042;14.472;2023-03-29T02:57:49;16.33;;;5.70;;
9821;SDS011;4950;46.042;14.472;2023-03-29T03:00:16;13.30;;;4.57;;
9821;SDS011;4950;46.042;14.472;2023-03-29T03:02:47;11.83;;;4.93;;
9821;SDS011;4950;46.042;14.472;2023-03-29T03:05:16;10.00;;;4.50;;
9821;SDS011;4950;46.042;14.472;2023-03-29T03:07:43;8.90;;;4.23;;
9821;SDS011;4950;46.042;14.472;2023-03-29T03:10:10;10.53;;;4.60;;
9821;SDS011;4950;46.042;14.472;2023-03-29T03:12:37;12.50;;;5.13;;
9821;SDS011;4950;46.042;14.472;2023-03-29T03:15:04;11.17;;;4.83;;
9821;SDS011;4950;46.042;14.472;2023-03-29T03:17:31;14.57;;;5.10;;
9821;SDS011;4950;46.042;14.472;2023-03-29T03:20:04;7.73;;;4.00;;
9821;SDS011;4950;46.042;14.472;2023-03-29T03:22:36;12.40;;;4.80;;
9821;SDS011;4950;46.042;14.472;2023-03-29T03:25:03;12.27;;;5.20;;
9821;SDS011;4950;46.042;14.472;2023-03-29T03:27:31;9.33;;;5.37;;
9821;SDS011;4950;46.042;14.472;2023-03-29T03:29:58;11.40;;;4.97;;
9821;SDS011;4950;46.042;14.472;2023-03-29T03:32:25;14.70;;;5.50;;
9821;SDS011;4950;46.042;14.472;2023-03-29T03:34:51;12.13;;;5.30;;
9821;SDS011;4950;46.042;14.472;2023-03-29T03:37:18;10.57;;;5.47;;
9821;SDS011;4950;46.042;14.472;2023-03-29T03:39:46;11.63;;;4.47;;
9821;SDS011;4950;46.042;14.472;2023-03-29T03:42:13;9.40;;;4.83;;
9821;SDS011;4950;46.042;14.472;2023-03-29T03:44:40;12.80;;;5.07;;
9821;SDS011;4950;46.042;14.472;2023-03-29T03:47:07;16.70;;;5.40;;
9821;SDS011;4950;46.042;14.472;2023-03-29T03:49:33;12.90;;;5.83;;
9821;SDS011;4950;46.042;14.472;2023-03-29T03:52:00;12.43;;;6.13;;
9821;SDS011;4950;46.042;14.472;2023-03-29T03:54:27;11.17;;;5.37;;
9821;SDS011;4950;46.042;14.472;2023-03-29T03:56:55;15.77;;;6.47;;
9821;SDS011;4950;46.042;14.472;2023-03-29T03:59:23;14.13;;;6.37;;
9821;SDS011;4950;46.042;14.472;2023-03-29T04:01:50;13.10;;;6.00;;
9821;SDS011;4950;46.042;14.472;2023-03-29T04:04:17;13.63;;;6.10;;
9821;SDS011;4950;46.042;14.472;2023-03-29T04:06:44;14.23;;;7.30;;
9821;SDS011;4950;46.042;14.472;2023-03-29T04:09:11;14.77;;;7.20;;
9821;SDS011;4950;46.042;14.472;2023-03-29T04:11:38;16.50;;;7.27;;
9821;SDS011;4950;46.042;14.472;2023-03-29T04:14:06;15.30;;;7.70;;
9821;SDS011;4950;46.042;14.472;2023-03-29T04:16:33;16.73;;;7.10;;
9821;SDS011;4950;46.042;14.472;2023-03-29T04:19:00;16.37;;;7.10;;
9821;SDS011;4950;46.042;14.472;2023-03-29T04:21:27;14.97;;;7.20;;
9821;SDS011;4950;46.042;14.472;2023-03-29T04:23:54;13.23;;;6.63;;
9821;SDS011;4950;46.042;14.472;2023-03-29T04:26:21;14.60;;;6.80;;
9821;SDS011;4950;46.042;14.472;2023-03-29T04:28:48;14.77;;;7.80;;
9821;SDS011;4950;46.042;14.472;2023-03-29T04:31:16;17.00;;;7.77;;
9821;SDS011;4950;46.042;14.472;2023-03-29T04:33:42;12.37;;;6.97;;
9821;SDS011;4950;46.042;14.472;2023-03-29T04:36:10;15.43;;;6.70;;
9821;SDS011;4950;46.042;14.472;2023-03-29T04:38:37;14.97;;;7.33;;
9821;SDS011;4950;46.042;14.472;2023-03-29T04:41:06;16.93;;;7.70;;
9821;SDS011;4950;46.042;14.472;2023-03-29T04:43:33;17.33;;;7.07;;
9821;SDS011;4950;46.042;14.472;2023-03-29T04:46:00;15.00;;;7.13;;
9821;SDS011;4950;46.042;14.472;2023-03-29T04:48:28;15.07;;;7.10;;
9821;SDS011;4950;46.042;14.472;2023-03-29T04:50:56;16.83;;;6.47;;
9821;SDS011;4950;46.042;14.472;2023-03-29T04:53:23;16.03;;;6.40;;
9821;SDS011;4950;46.042;14.472;2023-03-29T04:55:50;18.57;;;6.07;;
9821;SDS011;4950;46.042;14.472;2023-03-29T04:58:19;16.88;;;6.65;;
9821;SDS011;4950;46.042;14.472;2023-03-29T05:00:46;24.30;;;6.53;;
9821;SDS011;4950;46.042;14.472;2023-03-29T05:03:13;19.63;;;7.10;;
9821;SDS011;4950;46.042;14.472;2023-03-29T05:05:41;14.03;;;6.50;;
9821;SDS011;4950;46.042;14.472;2023-03-29T05:08:08;24.53;;;7.40;;
9821;SDS011;4950;46.042;14.472;2023-03-29T05:10:34;27.03;;;7.97;;
9821;SDS011;4950;46.042;14.472;2023-03-29T05:13:01;17.30;;;7.90;;
9821;SDS011;4950;46.042;14.472;2023-03-29T05:15:28;15.80;;;6.63;;
9821;SDS011;4950;46.042;14.472;2023-03-29T05:17:55;12.87;;;5.43;;
9821;SDS011;4950;46.042;14.472;2023-03-29T05:20:22;23.67;;;10.83;;
9821;SDS011;4950;46.042;14.472;2023-03-29T05:22:50;19.17;;;6.97;;
9821;SDS011;4950;46.042;14.472;2023-03-29T05:25:17;18.00;;;5.73;;
9821;SDS011;4950;46.042;14.472;2023-03-29T05:27:44;18.80;;;6.13;;
9821;SDS011;4950;46.042;14.472;2023-03-29T05:30:11;14.17;;;5.93;;
9821;SDS011;4950;46.042;14.472;2023-03-29T05:32:39;19.77;;;6.30;;
9821;SDS011;4950;46.042;14.472;2023-03-29T05:35:06;18.97;;;6.37;;
9821;SDS011;4950;46.042;14.472;2023-03-29T05:37:34;18.63;;;6.63;;
9821;SDS011;4950;46.042;14.472;2023-03-29T05:40:03;13.73;;;6.20;;
9821;SDS011;4950;46.042;14.472;2023-03-29T05:42:34;19.87;;;6.63;;
9821;SDS011;4950;46.042;14.472;2023-03-29T05:45:02;20.53;;;5.90;;
9821;SDS011;4950;46.042;14.472;2023-03-29T05:47:29;15.50;;;5.67;;
9821;SDS011;4950;46.042;14.472;2023-03-29T05:49:56;21.70;;;6.57;;
9821;SDS011;4950;46.042;14.472;2023-03-29T05:52:22;12.67;;;5.60;;
9821;SDS011;4950;46.042;14.472;2023-03-29T05:54:49;11.23;;;4.60;;
9821;SDS011;4950;46.042;14.472;2023-03-29T05:57:17;13.77;;;5.10;;
9821;SDS011;4950;46.042;14.472;2023-03-29T05:59:44;19.10;;;6.80;;
9821;SDS011;4950;46.042;14.472;2023-03-29T06:02:12;22.77;;;7.13;;
9821;SDS011;4950;46.042;14.472;2023-03-29T06:04:40;17.13;;;6.93;;
9821;SDS011;4950;46.042;14.472;2023-03-29T06:07:07;17.37;;;6.80;;
9821;SDS011;4950;46.042;14.472;2023-03-29T06:09:36;15.00;;;7.75;;
9821;SDS011;4950;46.042;14.472;2023-03-29T06:12:04;12.43;;;5.97;;
9821;SDS011;4950;46.042;14.472;2023-03-29T06:14:33;15.53;;;6.37;;
9821;SDS011;4950;46.042;14.472;2023-03-29T06:17:00;16.37;;;5.83;;
9821;SDS011;4950;46.042;14.472;2023-03-29T06:19:27;21.90;;;6.30;;
9821;SDS011;4950;46.042;14.472;2023-03-29T06:21:54;19.20;;;7.63;;
9821;SDS011;4950;46.042;14.472;2023-03-29T06:24:21;18.57;;;7.87;;
9821;SDS011;4950;46.042;14.472;2023-03-29T06:26:49;20.33;;;6.47;;
9821;SDS011;4950;46.042;14.472;2023-03-29T06:29:16;9.27;;;4.60;;
9821;SDS011;4950;46.042;14.472;2023-03-29T06:31:44;12.87;;;5.40;;
9821;SDS011;4950;46.042;14.472;2023-03-29T06:34:11;14.53;;;5.33;;
9821;SDS011;4950;46.042;14.472;2023-03-29T06:36:37;14.00;;;5.80;;
9821;SDS011;4950;46.042;14.472;2023-03-29T06:39:04;16.87;;;5.77;;
9821;SDS011;4950;46.042;14.472;2023-03-29T06:41:32;14.47;;;5.33;;
9821;SDS011;4950;46.042;14.472;2023-03-29T06:43:59;18.83;;;5.70;;
9821;SDS011;4950;46.042;14.472;2023-03-29T06:46:28;18.00;;;5.57;;
9821;SDS011;4950;46.042;14.472;2023-03-29T06:48:56;14.43;;;5.33;;
9821;SDS011;4950;46.042;14.472;2023-03-29T06:51:22;12.80;;;5.00;;
9821;SDS011;4950;46.042;14.472;2023-03-29T06:53:49;12.13;;;4.93;;
9821;SDS011;4950;46.042;14.472;2023-03-29T06:56:16;17.10;;;4.53;;
9821;SDS011;4950;46.042;14.472;2023-03-29T06:58:42;14.77;;;5.33;;
9821;SDS011;4950;46.042;14.472;2023-03-29T07:01:11;14.63;;;5.17;;
9821;SDS011;4950;46.042;14.472;2023-03-29T07:03:38;12.17;;;4.90;;
9821;SDS011;4950;46.042;14.472;2023-03-29T07:06:06;16.63;;;5.13;;
9821;SDS011;4950;46.042;14.472;2023-03-29T07:08:35;14.07;;;5.20;;
9821;SDS011;4950;46.042;14.472;2023-03-29T07:11:07;21.77;;;5.67;;
9821;SDS011;4950;46.042;14.472;2023-03-29T07:13:36;16.73;;;5.20;;
9821;SDS011;4950;46.042;14.472;2023-03-29T07:16:04;14.17;;;5.40;;
9821;SDS011;4950;46.042;14.472;2023-03-29T07:18:31;11.70;;;5.80;;
9821;SDS011;4950;46.042;14.472;2023-03-29T07:20:58;11.83;;;4.70;;
9821;SDS011;4950;46.042;14.472;2023-03-29T07:23:26;14.30;;;4.97;;
9821;SDS011;4950;46.042;14.472;2023-03-29T07:25:53;14.20;;;4.63;;
9821;SDS011;4950;46.042;14.472;2023-03-29T07:28:20;10.80;;;4.57;;
9821;SDS011;4950;46.042;14.472;2023-03-29T07:30:47;14.02;;;4.60;;
9821;SDS011;4950;46.042;14.472;2023-03-29T07:33:13;12.90;;;5.18;;
9821;SDS011;4950;46.042;14.472;2023-03-29T07:35:41;13.73;;;5.60;;
9821;SDS011;4950;46.042;14.472;2023-03-29T07:38:11;11.38;;;4.95;;
9821;SDS011;4950;46.042;14.472;2023-03-29T07:40:40;8.70;;;4.30;;
9821;SDS011;4950;46.042;14.472;2023-03-29T07:43:07;10.93;;;4.53;;
9821;SDS011;4950;46.042;14.472;2023-03-29T07:45:35;11.53;;;4.57;;
9821;SDS011;4950;46.042;14.472;2023-03-29T07:48:04;9.90;;;4.60;;
9821;SDS011;4950;46.042;14.472;2023-03-29T07:50:31;10.23;;;4.60;;
9821;SDS011;4950;46.042;14.472;2023-03-29T07:52:58;7.75;;;4.15;;
9821;SDS011;4950;46.042;14.472;2023-03-29T07:55:25;12.73;;;4.97;;
9821;SDS011;4950;46.042;14.472;2023-03-29T07:57:54;7.65;;;4.25;;
9821;SDS011;4950;46.042;14.472;2023-03-29T08:00:21;10.80;;;5.20;;
9821;SDS011;4950;46.042;14.472;2023-03-29T08:02:49;12.68;;;4.82;;
9821;SDS011;4950;46.042;14.472;2023-03-29T08:05:17;11.40;;;5.00;;
9821;SDS011;4950;46.042;14.472;2023-03-29T08:07:46;19.27;;;5.20;;
9821;SDS011;4950;46.042;14.472;2023-03-29T08:10:14;12.48;;;5.18;;
9821;SDS011;4950;46.042;14.472;2023-03-29T08:12:42;17.83;;;4.93;;
9821;SDS011;4950;46.042;14.472;2023-03-29T08:15:12;19.08;;;4.88;;
9821;SDS011;4950;46.042;14.472;2023-03-29T08:17:39;10.15;;;4.38;;
9821;SDS011;4950;46.042;14.472;2023-03-29T08:20:07;12.52;;;5.00;;
9821;SDS011;4950;46.042;14.472;2023-03-29T08:22:36;12.13;;;4.75;;
9821;SDS011;4950;46.042;14.472;2023-03-29T08:25:03;14.80;;;4.15;;
9821;SDS011;4950;46.042;14.472;2023-03-29T08:27:31;9.00;;;4.32;;
9821;SDS011;4950;46.042;14.472;2023-03-29T08:29:57;9.90;;;5.05;;
9821;SDS011;4950;46.042;14.472;2023-03-29T08:32:26;8.30;;;4.15;;
9821;SDS011;4950;46.042;14.472;2023-03-29T08:34:52;11.70;;;4.20;;
9821;SDS011;4950;46.042;14.472;2023-03-29T08:37:19;11.70;;;5.30;;
9821;SDS011;4950;46.042;14.472;2023-03-29T08:39:46;15.07;;;5.40;;
9821;SDS011;4950;46.042;14.472;2023-03-29T08:42:26;11.85;;;4.32;;
9821;SDS011;4950;46.042;14.472;2023-03-29T08:45:07;10.73;;;4.30;;
9821;SDS011;4950;46.042;14.472;2023-03-29T08:47:43;8.85;;;4.15;;
9821;SDS011;4950;46.042;14.472;2023-03-29T08:50:18;8.23;;;4.57;;
9821;SDS011;4950;46.042;14.472;2023-03-29T08:52:48;9.15;;;3.88;;
9821;SDS011;4950;46.042;14.472;2023-03-29T08:55:21;7.93;;;4.75;;
9821;SDS011;4950;46.042;14.472;2023-03-29T08:57:55;9.00;;;4.35;;
9821;SDS011;4950;46.042;14.472;2023-03-29T09:00:27;9.55;;;4.50;;
9821;SDS011;4950;46.042;14.472;2023-03-29T09:03:01;9.55;;;4.20;;
9821;SDS011;4950;46.042;14.472;2023-03-29T09:05:34;10.18;;;4.13;;
9821;SDS011;4950;46.042;14.472;2023-03-29T09:08:07;10.23;;;3.65;;
9821;SDS011;4950;46.042;14.472;2023-03-29T09:10:38;10.40;;;4.45;;
9821;SDS011;4950;46.042;14.472;2023-03-29T09:13:13;11.52;;;4.20;;
9821;SDS011;4950;46.042;14.472;2023-03-29T09:15:51;12.05;;;4.68;;
9821;SDS011;4950;46.042;14.472;2023-03-29T09:18:25;12.82;;;4.55;;
9821;SDS011;4950;46.042;14.472;2023-03-29T09:20:59;15.63;;;4.60;;
9821;SDS011;4950;46.042;14.472;2023-03-29T09:23:48;10.10;;;4.45;;
9821;SDS011;4950;46.042;14.472;2023-03-29T09:26:29;13.85;;;4.00;;
9821;SDS011;4950;46.042;14.472;2023-03-29T09:29:04;8.10;;;3.90;;
9821;SDS011;4950;46.042;14.472;2023-03-29T09:31:40;8.10;;;4.00;;
9821;SDS011;4950;46.042;14.472;2023-03-29T09:34:11;8.23;;;3.55;;
9821;SDS011;4950;46.042;14.472;2023-03-29T09:36:41;9.00;;;4.00;;
9821;SDS011;4950;46.042;14.472;2023-03-29T09:39:15;8.70;;;3.80;;
9821;SDS011;4950;46.042;14.472;2023-03-29T09:41:44;9.30;;;3.63;;
9821;SDS011;4950;46.042;14.472;2023-03-29T09:44:14;8.98;;;3.22;;
9821;SDS011;4950;46.042;14.472;2023-03-29T09:46:44;7.72;;;3.53;;
9821;SDS011;4950;46.042;14.472;2023-03-29T09:49:17;7.13;;;3.50;;
9821;SDS011;4950;46.042;14.472;2023-03-29T09:51:48;8.32;;;3.10;;
9821;SDS011;4950;46.042;14.472;2023-03-29T09:54:15;10.77;;;3.70;;
9821;SDS011;4950;46.042;14.472;2023-03-29T09:56:42;9.68;;;4.20;;
9821;SDS011;4950;46.042;14.472;2023-03-29T09:59:09;8.85;;;3.05;;
9821;SDS011;4950;46.042;14.472;2023-03-29T10:01:38;6.43;;;2.80;;
9821;SDS011;4950;46.042;14.472;2023-03-29T10:04:07;13.32;;;3.35;;
9821;SDS011;4950;46.042;14.472;2023-03-29T10:06:36;10.32;;;3.30;;
9821;SDS011;4950;46.042;14.472;2023-03-29T10:09:12;6.55;;;2.90;;
9821;SDS011;4950;46.042;14.472;2023-03-29T10:11:44;11.20;;;3.17;;
9821;SDS011;4950;46.042;14.472;2023-03-29T10:14:13;8.73;;;2.60;;
9821;SDS011;4950;46.042;14.472;2023-03-29T10:16:44;8.45;;;2.92;;
9821;SDS011;4950;46.042;14.472;2023-03-29T10:19:15;6.10;;;2.50;;
9821;SDS011;4950;46.042;14.472;2023-03-29T10:21:47;6.70;;;2.40;;
9821;SDS011;4950;46.042;14.472;2023-03-29T10:24:17;5.60;;;1.83;;
9821;SDS011;4950;46.042;14.472;2023-03-29T10:26:45;6.95;;;2.10;;
9821;SDS011;4950;46.042;14.472;2023-03-29T10:29:15;3.90;;;2.13;;
9821;SDS011;4950;46.042;14.472;2023-03-29T10:31:42;3.60;;;1.90;;
9821;SDS011;4950;46.042;14.472;2023-03-29T10:34:10;4.40;;;2.25;;
9821;SDS011;4950;46.042;14.472;2023-03-29T10:36:40;5.32;;;2.03;;
9821;SDS011;4950;46.042;14.472;2023-03-29T10:39:12;5.95;;;1.98;;
9821;SDS011;4950;46.042;14.472;2023-03-29T10:41:40;5.15;;;2.10;;
9821;SDS011;4950;46.042;14.472;2023-03-29T10:44:21;8.52;;;2.30;;
9821;SDS011;4950;46.042;14.472;2023-03-29T10:46:51;7.72;;;2.13;;
9821;SDS011;4950;46.042;14.472;2023-03-29T10:49:18;7.18;;;2.45;;
9821;SDS011;4950;46.042;14.472;2023-03-29T10:51:46;4.50;;;1.73;;
9821;SDS011;4950;46.042;14.472;2023-03-29T10:54:18;3.30;;;1.83;;
9821;SDS011;4950;46.042;14.472;2023-03-29T10:56:48;14.68;;;2.20;;
9821;SDS011;4950;46.042;14.472;2023-03-29T10:59:22;4.18;;;2.05;;
9821;SDS011;4950;46.042;14.472;2023-03-29T11:02:06;6.55;;;2.25;;
9821;SDS011;4950;46.042;14.472;2023-03-29T11:04:51;5.72;;;2.33;;
9821;SDS011;4950;46.042;14.472;2023-03-29T11:07:25;4.35;;;1.88;;
9821;SDS011;4950;46.042;14.472;2023-03-29T11:09:59;5.28;;;1.90;;
9821;SDS011;4950;46.042;14.472;2023-03-29T11:12:37;7.07;;;1.95;;
9821;SDS011;4950;46.042;14.472;2023-03-29T11:15:14;7.10;;;1.73;;
9821;SDS011;4950;46.042;14.472;2023-03-29T11:17:50;4.60;;;2.38;;
9821;SDS011;4950;46.042;14.472;2023-03-29T11:20:26;5.03;;;2.17;;
9821;SDS011;4950;46.042;14.472;2023-03-29T11:23:00;4.85;;;2.10;;
9821;SDS011;4950;46.042;14.472;2023-03-29T11:25:42;7.25;;;2.17;;
9821;SDS011;4950;46.042;14.472;2023-03-29T11:28:19;4.85;;;1.80;;
9821;SDS011;4950;46.042;14.472;2023-03-29T11:30:56;2.97;;;1.42;;
9821;SDS011;4950;46.042;14.472;2023-03-29T11:33:36;2.50;;;1.35;;
9821;SDS011;4950;46.042;14.472;2023-03-29T11:36:13;4.40;;;1.52;;
9821;SDS011;4950;46.042;14.472;2023-03-29T11:38:47;4.20;;;1.23;;
9821;SDS011;4950;46.042;14.472;2023-03-29T11:41:24;4.07;;;1.47;;
9821;SDS011;4950;46.042;14.472;2023-03-29T11:43:56;4.63;;;1.52;;
9821;SDS011;4950;46.042;14.472;2023-03-29T11:46:28;7.88;;;1.52;;
9821;SDS011;4950;46.042;14.472;2023-03-29T11:48:59;5.85;;;1.90;;
9821;SDS011;4950;46.042;14.472;2023-03-29T11:51:30;3.58;;;1.55;;
9821;SDS011;4950;46.042;14.472;2023-03-29T11:54:01;7.28;;;1.60;;
9821;SDS011;4950;46.042;14.472;2023-03-29T11:56:34;6.03;;;1.42;;
9821;SDS011;4950;46.042;14.472;2023-03-29T11:59:06;3.75;;;1.60;;
9821;SDS011;4950;46.042;14.472;2023-03-29T12:01:41;7.57;;;1.55;;
9821;SDS011;4950;46.042;14.472;2023-03-29T12:04:13;9.65;;;1.58;;
9821;SDS011;4950;46.042;14.472;2023-03-29T12:06:47;6.38;;;1.42;;
9821;SDS011;4950;46.042;14.472;2023-03-29T12:09:22;7.35;;;1.60;;
9821;SDS011;4950;46.042;14.472;2023-03-29T12:11:58;5.97;;;1.90;;
9821;SDS011;4950;46.042;14.472;2023-03-29T12:14:41;3.90;;;1.90;;
9821;SDS011;4950;46.042;14.472;2023-03-29T12:17:17;8.35;;;1.80;;
9821;SDS011;4950;46.042;14.472;2023-03-29T12:19:49;4.68;;;1.63;;
9821;SDS011;4950;46.042;14.472;2023-03-29T12:22:25;8.30;;;2.28;;
9821;SDS011;4950;46.042;14.472;2023-03-29T12:24:52;3.63;;;1.45;;
9821;SDS011;4950;46.042;14.472;2023-03-29T12:27:24;5.70;;;1.55;;
9821;SDS011;4950;46.042;14.472;2023-03-29T12:29:58;7.68;;;1.30;;
9821;SDS011;4950;46.042;14.472;2023-03-29T12:32:48;4.28;;;1.38;;
9821;SDS011;4950;46.042;14.472;2023-03-29T12:35:26;5.25;;;1.40;;
9821;SDS011;4950;46.042;14.472;2023-03-29T12:38:04;6.53;;;1.55;;
9821;SDS011;4950;46.042;14.472;2023-03-29T12:40:39;5.57;;;1.67;;
9821;SDS011;4950;46.042;14.472;2023-03-29T12:43:12;6.93;;;1.42;;
9821;SDS011;4950;46.042;14.472;2023-03-29T12:45:45;7.40;;;1.65;;
9821;SDS011;4950;46.042;14.472;2023-03-29T12:48:14;3.63;;;1.47;;
9821;SDS011;4950;46.042;14.472;2023-03-29T12:50:45;6.15;;;1.40;;
9821;SDS011;4950;46.042;14.472;2023-03-29T12:53:17;4.53;;;1.38;;
9821;SDS011;4950;46.042;14.472;2023-03-29T12:55:49;5.90;;;1.42;;
9821;SDS011;4950;46.042;14.472;2023-03-29T12:58:27;11.40;;;1.42;;
9821;SDS011;4950;46.042;14.472;2023-03-29T13:01:06;3.70;;;1.70;;
9821;SDS011;4950;46.042;14.472;2023-03-29T13:03:39;7.00;;;1.70;;
9821;SDS011;4950;46.042;14.472;2023-03-29T13:06:12;4.68;;;1.63;;
9821;SDS011;4950;46.042;14.472;2023-03-29T13:08:56;5.90;;;1.77;;
9821;SDS011;4950;46.042;14.472;2023-03-29T13:11:25;3.53;;;1.95;;
9821;SDS011;4950;46.042;14.472;2023-03-29T13:13:54;4.47;;;1.83;;
9821;SDS011;4950;46.042;14.472;2023-03-29T13:16:27;6.13;;;1.80;;
9821;SDS011;4950;46.042;14.472;2023-03-29T13:18:58;6.25;;;1.85;;
9821;SDS011;4950;46.042;14.472;2023-03-29T13:21:36;4.47;;;1.85;;
9821;SDS011;4950;46.042;14.472;2023-03-29T13:24:17;4.97;;;2.40;;
9821;SDS011;4950;46.042;14.472;2023-03-29T13:26:56;6.00;;;2.45;;
9821;SDS011;4950;46.042;14.472;2023-03-29T13:29:35;4.85;;;2.28;;
9821;SDS011;4950;46.042;14.472;2023-03-29T13:32:17;4.78;;;2.38;;
9821;SDS011;4950;46.042;14.472;2023-03-29T13:34:55;9.90;;;1.95;;
9821;SDS011;4950;46.042;14.472;2023-03-29T13:37:32;6.63;;;2.42;;
9821;SDS011;4950;46.042;14.472;2023-03-29T13:42:56;4.00;;;1.92;;
9821;SDS011;4950;46.042;14.472;2023-03-29T13:45:26;8.63;;;2.45;;
9821;SDS011;4950;46.042;14.472;2023-03-29T13:48:00;4.13;;;2.20;;
9821;SDS011;4950;46.042;14.472;2023-03-29T13:50:32;9.75;;;2.45;;
9821;SDS011;4950;46.042;14.472;2023-03-29T13:53:02;7.82;;;2.33;;
9821;SDS011;4950;46.042;14.472;2023-03-29T13:55:36;6.63;;;2.10;;
9821;SDS011;4950;46.042;14.472;2023-03-29T13:58:09;5.80;;;2.17;;
9821;SDS011;4950;46.042;14.472;2023-03-29T14:00:44;5.07;;;2.10;;
9821;SDS011;4950;46.042;14.472;2023-03-29T14:03:15;5.47;;;2.15;;
9821;SDS011;4950;46.042;14.472;2023-03-29T14:05:46;6.85;;;2.13;;
9821;SDS011;4950;46.042;14.472;2023-03-29T14:08:19;4.70;;;2.00;;
9821;SDS011;4950;46.042;14.472;2023-03-29T14:10:50;6.45;;;2.25;;
9821;SDS011;4950;46.042;14.472;2023-03-29T14:13:20;6.20;;;2.05;;
9821;SDS011;4950;46.042;14.472;2023-03-29T14:15:51;9.05;;;2.17;;
9821;SDS011;4950;46.042;14.472;2023-03-29T14:18:21;6.90;;;2.25;;
9821;SDS011;4950;46.042;14.472;2023-03-29T14:20:50;5.53;;;2.22;;
9821;SDS011;4950;46.042;14.472;2023-03-29T14:23:20;7.80;;;2.03;;
9821;SDS011;4950;46.042;14.472;2023-03-29T14:25:48;4.70;;;1.95;;
9821;SDS011;4950;46.042;14.472;2023-03-29T14:28:19;3.92;;;1.88;;
9821;SDS011;4950;46.042;14.472;2023-03-29T14:30:47;7.07;;;2.35;;
9821;SDS011;4950;46.042;14.472;2023-03-29T14:35:51;4.25;;;2.08;;
9821;SDS011;4950;46.042;14.472;2023-03-29T14:38:18;5.82;;;2.30;;
9821;SDS011;4950;46.042;14.472;2023-03-29T14:40:46;6.55;;;2.03;;
9821;SDS011;4950;46.042;14.472;2023-03-29T14:43:13;5.43;;;2.05;;
9821;SDS011;4950;46.042;14.472;2023-03-29T14:45:44;8.20;;;2.42;;
9821;SDS011;4950;46.042;14.472;2023-03-29T14:48:11;6.70;;;1.98;;
9821;SDS011;4950;46.042;14.472;2023-03-29T14:50:41;9.82;;;2.65;;
9821;SDS011;4950;46.042;14.472;2023-03-29T14:53:12;5.07;;;2.15;;
9821;SDS011;4950;46.042;14.472;2023-03-29T14:55:43;4.63;;;2.53;;
9821;SDS011;4950;46.042;14.472;2023-03-29T14:58:14;6.85;;;2.70;;
9821;SDS011;4950;46.042;14.472;2023-03-29T15:00:45;5.18;;;2.42;;
9821;SDS011;4950;46.042;14.472;2023-03-29T15:05:45;8.13;;;2.85;;
9821;SDS011;4950;46.042;14.472;2023-03-29T15:08:14;7.07;;;2.75;;
9821;SDS011;4950;46.042;14.472;2023-03-29T15:10:44;6.25;;;2.90;;
9821;SDS011;4950;46.042;14.472;2023-03-29T15:13:13;10.52;;;3.75;;
9821;SDS011;4950;46.042;14.472;2023-03-29T15:15:45;5.55;;;3.17;;
9821;SDS011;4950;46.042;14.472;2023-03-29T15:18:12;6.10;;;2.67;;
9821;SDS011;4950;46.042;14.472;2023-03-29T15:20:43;4.57;;;2.80;;
9821;SDS011;4950;46.042;14.472;2023-03-29T15:23:18;4.72;;;2.80;;